Wetterdaten: Mrz 2014
Datum Temp Feuchte Luftdruck Regen Wind Richtung Sonnenschein UV Solar Windben
01.03.2014 4,9 C 88 % 1001,5 hPa 3,8 l/m 1,8 km/h SO 2,75 h 1,0 UV-I 168 W/m 5,2 km/h
02.03.2014 3,2 C 85 % 1001,7 hPa 0,2 l/m 3,2 km/h S-SW 2,02 h 1,0 UV-I 162 W/m 8,4 km/h
03.03.2014 4,9 C 87 % 994,0 hPa 0,0 l/m 6,2 km/h S-SO 1,00 h 1,0 UV-I 122 W/m 10,9 km/h
04.03.2014 3,3 C 86 % 1005,3 hPa 0,0 l/m 0,0 km/h N-NW 4,58 h 1,0 UV-I 212 W/m 1,2 km/h
05.03.2014 4,4 C 92 % 1021,4 hPa 0,0 l/m 0,4 km/h W 0,67 h 0,7 UV-I 95 W/m 2,0 km/h
06.03.2014 4,0 C 83 % 1029,1 hPa 0,2 l/m 1,5 km/h S 8,33 h 1,6 UV-I 288 W/m 4,4 km/h
07.03.2014 9,8 C 65 % 1026,3 hPa 0,0 l/m 4,5 km/h S-SW 6,58 h 1,7 UV-I 339 W/m 12,1 km/h
08.03.2014 8,5 C 80 % 1031,2 hPa 0,0 l/m 7,0 km/h S-SO 7,92 h 1,4 UV-I 297 W/m 14,1 km/h
09.03.2014 11,2 C 60 % 1028,9 hPa 0,0 l/m 6,5 km/h S-SO 8,83 h 1,8 UV-I 319 W/m 12,9 km/h
10.03.2014 8,6 C 66 % 1025,2 hPa 0,0 l/m 0,6 km/h N-NO 8,92 h 1,6 UV-I 325 W/m 2,4 km/h
11.03.2014 7,4 C 85 % 1031,9 hPa 0,0 l/m 2,5 km/h N-NO 8,75 h 1,6 UV-I 310 W/m 7,2 km/h
12.03.2014 6,4 C 77 % 1031,8 hPa 0,0 l/m 0,7 km/h SO 8,92 h 1,7 UV-I 318 W/m 3,6 km/h
13.03.2014 6,1 C 75 % 1027,8 hPa 0,0 l/m 0,5 km/h W-SW 8,92 h 1,7 UV-I 321 W/m 2,4 km/h
14.03.2014 8,0 C 70 % 1022,4 hPa 0,0 l/m 1,3 km/h SW 8,83 h 1,6 UV-I 330 W/m 5,2 km/h
15.03.2014 6,4 C 83 % 1016,8 hPa 3,4 l/m 9,8 km/h NW 0,17 h 0,8 UV-I 102 W/m 28,9 km/h
16.03.2014 7,9 C 94 % 1016,0 hPa 4,0 l/m 14,8 km/h W 0,00 h 0,6 UV-I 24 W/m 35,4 km/h
17.03.2014 8,6 C 84 % 1017,9 hPa 0,0 l/m 7,2 km/h W 0,08 h 1,2 UV-I 96 W/m 21,0 km/h
18.03.2014 7,1 C 90 % 1012,7 hPa 1,8 l/m 4,1 km/h SW 0,00 h 1,0 UV-I 69 W/m 17,7 km/h
19.03.2014 10,2 C 79 % 1019,9 hPa 1,6 l/m 7,3 km/h SW 2,33 h 1,3 UV-I 158 W/m 29,4 km/h
20.03.2014 11,6 C 63 % 1012,6 hPa 0,0 l/m 10,8 km/h S 8,42 h 1,8 UV-I 340 W/m 18,1 km/h
21.03.2014 7,0 C 84 % 1007,6 hPa 3,4 l/m 5,2 km/h S 1,00 h 1,1 UV-I 126 W/m 13,3 km/h
22.03.2014 5,7 C 85 % 1002,6 hPa 3,0 l/m 6,9 km/h S 0,75 h 1,1 UV-I 138 W/m 10,5 km/h
23.03.2014 3,4 C 87 % 1006,6 hPa 1,8 l/m 1,6 km/h S-SW 3,75 h 1,1 UV-I 219 W/m 6,4 km/h
24.03.2014 3,1 C 89 % 1012,4 hPa 2,0 l/m 2,0 km/h W-NW 5,33 h 1,5 UV-I 291 W/m 6,4 km/h
25.03.2014 1,6 C 85 % 1011,3 hPa 0,2 l/m 0,0 km/h N-NW 4,75 h 1,2 UV-I 229 W/m 0,0 km/h
26.03.2014 3,6 C 76 % 1015,2 hPa 0,2 l/m 2,4 km/h O-SO 5,08 h 1,1 UV-I 234 W/m 5,6 km/h
27.03.2014 7,1 C 70 % 1015,1 hPa 0,0 l/m 3,3 km/h O-SO 6,17 h 1,6 UV-I 313 W/m 10,9 km/h
28.03.2014 7,8 C 79 % 1019,8 hPa 0,0 l/m 13,1 km/h SO 5,42 h 1,4 UV-I 251 W/m 23,0 km/h
29.03.2014 9,7 C 71 % 1020,4 hPa 0,0 l/m 8,0 km/h S-SO 9,58 h 1,8 UV-I 372 W/m 13,3 km/h
30.03.2014 10,5 C 74 % 1016,3 hPa 0,0 l/m 0,0 km/h SO 9,50 h 1,8 UV-I 344 W/m 0,0 km/h
31.03.2014 10,4 C 83 % 1014,2 hPa 0,0 l/m 0,0 km/h W-NW 6,00 h 1,4 UV-I 263 W/m 0,4 km/h
Min-Datum 26.03.14 10.03.14 03.03.14 13 Tage 01.03.14 - - - - 01.03.14
Min-Zeit 06:20 14:55 10:25 - 00:00 - - - - 00:00
Minimum -2,4 C 29 % 991,0 hPa - 0,0 km/h - - - - 0,0 km/h
Max-Datum 09.03.14 05.03.14 12.03.14 16.03.14 21.03.14 - 29.03.14 20.03.14 24.03.14 21.03.14
Max-Zeit 14:30 00:45 09:10 01:15 13:35 - 16:50 11:55 12:25 13:35
Maximum 19,8 C 100 % 1034,2 hPa 4,0 l/m 39,0 km/h
S
- 9,50 h 3,1 UV-I 823 W/m 61,2 km/h
S-SW
Durchschnitt 6,9 C 80 % 1016,6 hPa #25,6 l/m 4,3 km/h S-SO #155:21 h 1,3 UV-I 231 W/m 10,7 km/h

Durchschnitt Minimum Temp.2,3 C
Durchschnitt Maximum Temp.12,7 C